createdAt,value
2023-01-29T00:00:22.249Z,88.19
2023-01-29T00:02:48.701Z,88.48
2023-01-29T00:05:27.087Z,88.18
2023-01-29T00:07:54.656Z,88.23
2023-01-29T00:10:21.133Z,88.26
2023-01-29T00:12:47.589Z,88.34
2023-01-29T00:15:14.034Z,88.51
2023-01-29T00:17:40.514Z,88.48
2023-01-29T00:20:07.232Z,88.44
2023-01-29T00:22:33.630Z,88.25
2023-01-29T00:25:00.351Z,88.62
2023-01-29T00:27:26.786Z,88.54
2023-01-29T00:30:13.032Z,88.75
2023-01-29T00:32:40.700Z,88.33
2023-01-29T00:35:08.827Z,88.20
2023-01-29T00:37:35.443Z,88.63
2023-01-29T00:40:01.850Z,88.58
2023-01-29T00:42:46.914Z,88.27
2023-01-29T00:45:13.462Z,88.31
2023-01-29T00:47:39.944Z,88.19
2023-01-29T00:50:09.550Z,88.59
2023-01-29T00:52:36.786Z,88.73
2023-01-29T00:55:05.749Z,88.75
2023-01-29T00:57:34.035Z,88.50
2023-01-29T01:00:01.652Z,88.62
2023-01-29T01:02:47.116Z,88.81
2023-01-29T01:05:18.127Z,88.83
2023-01-29T01:07:46.669Z,88.44
2023-01-29T01:10:22.307Z,88.56
2023-01-29T01:13:00.244Z,88.44
2023-01-29T01:15:31.008Z,88.22
2023-01-29T01:18:01.353Z,88.46
2023-01-29T01:20:30.075Z,88.87
2023-01-29T01:22:57.007Z,88.90
2023-01-29T01:25:25.055Z,88.52
2023-01-29T01:27:55.253Z,88.71
2023-01-29T01:30:23.084Z,88.98
2023-01-29T01:32:49.933Z,88.82
2023-01-29T01:35:16.754Z,88.65
2023-01-29T01:37:43.154Z,88.87
2023-01-29T01:40:21.724Z,88.96
2023-01-29T01:42:50.794Z,89.09
2023-01-29T01:45:35.430Z,88.67
2023-01-29T01:48:01.827Z,89.04
2023-01-29T01:50:43.902Z,89.39
2023-01-29T01:53:19.122Z,89.15
2023-01-29T01:55:54.417Z,89.60
2023-01-29T01:58:43.756Z,88.86
2023-01-29T02:01:11.808Z,89.32
2023-01-29T02:04:03.391Z,89.08
2023-01-29T02:06:49.886Z,89.32
2023-01-29T02:09:38.798Z,88.84
2023-01-29T02:12:10.794Z,88.80
2023-01-29T02:14:40.122Z,89.33
2023-01-29T02:17:10.111Z,89.22
2023-01-29T02:19:39.191Z,89.06
2023-01-29T02:22:33.482Z,89.02
2023-01-29T02:25:12.067Z,88.86
2023-01-29T02:27:48.824Z,89.02
2023-01-29T02:30:19.497Z,89.17
2023-01-29T02:32:58.669Z,89.22
2023-01-29T02:35:32.194Z,89.12
2023-01-29T02:38:17.986Z,89.25
2023-01-29T02:40:57.426Z,89.05
2023-01-29T02:43:39.068Z,89.35
2023-01-29T02:46:18.268Z,89.31
2023-01-29T02:48:55.730Z,88.97
2023-01-29T02:51:30.671Z,88.84
2023-01-29T02:54:20.315Z,89.28
2023-01-29T02:56:54.184Z,88.88
2023-01-29T02:59:25.594Z,88.86
2023-01-29T03:01:58.171Z,89.06
2023-01-29T03:04:30.566Z,88.90
2023-01-29T03:07:04.349Z,88.83
2023-01-29T03:09:39.552Z,89.27
2023-01-29T03:12:29.167Z,89.24
2023-01-29T03:15:11.668Z,89.00
2023-01-29T03:17:51.329Z,89.48
2023-01-29T03:20:22.674Z,88.80
2023-01-29T03:22:56.645Z,88.78
2023-01-29T03:25:45.707Z,89.08
2023-01-29T03:28:35.825Z,89.20
2023-01-29T03:31:24.393Z,89.19
2023-01-29T03:33:58.998Z,89.43
2023-01-29T03:36:45.402Z,89.41
2023-01-29T03:39:14.010Z,89.29
2023-01-29T03:41:49.976Z,89.29
2023-01-29T03:44:26.400Z,89.32
2023-01-29T03:46:57.583Z,89.89
2023-01-29T03:49:40.427Z,89.74
2023-01-29T03:52:23.605Z,89.50
2023-01-29T03:55:23.099Z,89.87
2023-01-29T03:57:57.762Z,89.39
2023-01-29T04:00:32.396Z,89.83
2023-01-29T04:03:21.890Z,90.14
2023-01-29T04:05:58.373Z,90.10
2023-01-29T04:08:31.044Z,89.79
2023-01-29T04:11:01.966Z,90.14
2023-01-29T04:13:33.687Z,89.80
2023-01-29T04:16:03.209Z,89.89
2023-01-29T04:18:29.702Z,89.75
2023-01-29T04:20:56.542Z,90.05
2023-01-29T04:23:27.377Z,89.78
2023-01-29T04:26:10.252Z,89.73
2023-01-29T04:29:09.018Z,89.34
2023-01-29T04:32:01.910Z,89.59
2023-01-29T04:34:33.730Z,89.23
2023-01-29T04:37:29.945Z,89.79
2023-01-29T04:40:09.149Z,89.61
2023-01-29T04:42:47.778Z,89.60
2023-01-29T04:45:46.992Z,89.45
2023-01-29T04:48:22.386Z,89.37
2023-01-29T04:51:07.099Z,89.15
2023-01-29T04:54:10.940Z,88.85
2023-01-29T04:56:48.272Z,88.80
2023-01-29T04:59:21.575Z,89.28
2023-01-29T05:01:48.910Z,88.75
2023-01-29T05:04:19.974Z,88.97
2023-01-29T05:06:49.254Z,88.62
2023-01-29T05:09:17.477Z,88.42
2023-01-29T05:11:47.700Z,88.85
2023-01-29T05:14:18.301Z,88.80
2023-01-29T05:16:50.773Z,88.92
2023-01-29T05:19:17.594Z,88.46
2023-01-29T05:21:47.530Z,88.34
2023-01-29T05:24:21.044Z,88.53
2023-01-29T05:27:08.270Z,89.06
2023-01-29T05:29:34.875Z,88.57
2023-01-29T05:32:01.313Z,88.40
2023-01-29T05:34:27.843Z,88.42
2023-01-29T05:36:54.247Z,88.19
2023-01-29T05:39:21.065Z,88.33
2023-01-29T05:41:47.700Z,88.14
2023-01-29T05:44:14.226Z,88.38
2023-01-29T05:46:40.763Z,87.99
2023-01-29T05:49:07.223Z,88.20
2023-01-29T05:51:33.687Z,88.20
2023-01-29T05:54:00.115Z,88.01
2023-01-29T05:56:26.627Z,88.27
2023-01-29T05:58:53.100Z,87.91
2023-01-29T06:01:22.091Z,88.11
2023-01-29T06:03:48.662Z,88.25
2023-01-29T06:06:15.798Z,87.94
2023-01-29T06:08:42.506Z,88.24
2023-01-29T06:11:12.031Z,87.67
2023-01-29T06:13:39.298Z,87.37
2023-01-29T06:16:07.122Z,87.53
2023-01-29T06:18:33.822Z,87.12
2023-01-29T06:21:02.559Z,87.69
2023-01-29T06:23:29.529Z,87.63
2023-01-29T06:26:03.575Z,86.97
2023-01-29T06:28:30.679Z,87.52
2023-01-29T06:31:08.262Z,87.41
2023-01-29T06:33:43.035Z,87.03
2023-01-29T06:36:10.107Z,87.38
2023-01-29T06:38:36.527Z,87.03
2023-01-29T06:41:12.214Z,86.95
2023-01-29T06:43:39.383Z,87.00
2023-01-29T06:46:08.258Z,86.83
2023-01-29T06:48:35.170Z,86.77
2023-01-29T06:51:06.859Z,86.26
2023-01-29T06:53:34.700Z,86.73
2023-01-29T06:56:01.421Z,86.44
2023-01-29T06:58:27.857Z,86.41
2023-01-29T07:00:54.450Z,86.39
2023-01-29T07:03:21.197Z,86.04
2023-01-29T07:05:52.537Z,86.27
2023-01-29T07:08:19.430Z,85.66
2023-01-29T07:10:45.903Z,85.99
2023-01-29T07:13:12.422Z,86.25
2023-01-29T07:15:38.906Z,86.29
2023-01-29T07:18:12.081Z,86.38
2023-01-29T07:20:40.752Z,85.80
2023-01-29T07:23:10.098Z,86.19
2023-01-29T07:25:36.805Z,86.43
2023-01-29T07:28:04.102Z,85.96
2023-01-29T07:30:30.732Z,86.48
2023-01-29T07:33:07.302Z,86.22
2023-01-29T07:35:39.179Z,86.25
2023-01-29T07:38:06.980Z,86.41
2023-01-29T07:40:33.673Z,86.16
2023-01-29T07:43:02.154Z,86.25
2023-01-29T07:45:30.068Z,86.30
2023-01-29T07:47:57.023Z,86.01
2023-01-29T07:50:24.811Z,86.54
2023-01-29T07:52:51.607Z,86.09
2023-01-29T07:55:18.081Z,86.38
2023-01-29T07:57:44.641Z,85.96
2023-01-29T08:00:12.351Z,86.05
2023-01-29T08:02:39.122Z,86.46
2023-01-29T08:05:05.816Z,85.93
2023-01-29T08:07:32.501Z,86.02
2023-01-29T08:09:59.109Z,85.74
2023-01-29T08:12:25.702Z,85.71
2023-01-29T08:14:52.123Z,85.68
2023-01-29T08:17:18.538Z,85.46
2023-01-29T08:19:44.967Z,85.53
2023-01-29T08:22:11.463Z,85.34
2023-01-29T08:24:53.296Z,85.66
2023-01-29T08:27:24.388Z,85.65
2023-01-29T08:29:50.847Z,85.38
2023-01-29T08:32:17.248Z,85.34
2023-01-29T08:34:43.779Z,84.84
2023-01-29T08:37:10.187Z,84.99
2023-01-29T08:39:36.679Z,85.19
2023-01-29T08:42:03.164Z,85.08
2023-01-29T08:44:29.592Z,85.06
2023-01-29T08:46:56.032Z,84.83
2023-01-29T08:49:22.498Z,84.39
2023-01-29T08:51:49.019Z,84.49
2023-01-29T08:54:15.547Z,84.61
2023-01-29T08:56:41.972Z,83.89
2023-01-29T08:59:10.076Z,84.35
2023-01-29T09:01:36.829Z,84.17
2023-01-29T09:04:03.323Z,84.06
2023-01-29T09:06:29.915Z,83.94
2023-01-29T09:08:56.500Z,84.19
2023-01-29T09:11:22.959Z,84.22
2023-01-29T09:13:49.467Z,83.65
2023-01-29T09:16:15.935Z,83.16
2023-01-29T09:18:42.563Z,83.43
2023-01-29T09:21:09.174Z,83.49
2023-01-29T09:23:35.833Z,83.65
2023-01-29T09:26:02.294Z,83.54
2023-01-29T09:28:28.752Z,83.09
2023-01-29T09:30:57.038Z,82.93
2023-01-29T09:33:24.711Z,83.47
2023-01-29T09:35:51.204Z,82.97
2023-01-29T09:38:17.607Z,83.03
2023-01-29T09:41:00.274Z,83.18
2023-01-29T09:43:41.778Z,82.61
2023-01-29T09:46:17.617Z,82.79
2023-01-29T09:48:46.239Z,83.14
2023-01-29T09:51:25.469Z,82.94
2023-01-29T09:54:03.372Z,82.80
2023-01-29T09:56:29.848Z,82.51
2023-01-29T09:59:01.616Z,82.63
2023-01-29T10:01:44.538Z,82.34
2023-01-29T10:04:16.749Z,81.91
2023-01-29T10:07:17.468Z,82.27
2023-01-29T10:10:25.953Z,82.42
2023-01-29T10:13:15.536Z,81.82
2023-01-29T10:15:54.286Z,82.09
2023-01-29T10:18:36.328Z,81.80
2023-01-29T10:21:45.606Z,82.32
2023-01-29T10:24:18.665Z,82.52
2023-01-29T10:26:45.233Z,81.82
2023-01-29T10:29:18.204Z,81.86
2023-01-29T10:31:49.867Z,82.01
2023-01-29T10:34:33.271Z,82.08
2023-01-29T10:36:59.755Z,82.33
2023-01-29T10:39:27.266Z,82.28
2023-01-29T10:42:08.683Z,82.32
2023-01-29T10:45:01.663Z,82.27
2023-01-29T10:47:53.211Z,82.61
2023-01-29T10:50:36.543Z,82.76
2023-01-29T10:53:33.514Z,82.27
2023-01-29T10:56:23.060Z,82.03
2023-01-29T10:59:14.423Z,82.23
2023-01-29T11:01:40.913Z,81.87
2023-01-29T11:04:12.853Z,82.03
2023-01-29T11:06:39.404Z,81.95
2023-01-29T11:12:04.138Z,82.18
2023-01-29T11:14:44.524Z,81.53
2023-01-29T11:17:19.176Z,82.33
2023-01-29T11:19:48.542Z,81.48
2023-01-29T11:22:17.499Z,81.70
2023-01-29T11:24:44.553Z,81.65
2023-01-29T11:27:33.824Z,81.47
2023-01-29T11:30:00.491Z,81.58
2023-01-29T11:32:32.548Z,81.86
2023-01-29T11:35:14.338Z,82.45
2023-01-29T11:37:42.852Z,82.21
2023-01-29T11:40:35.416Z,82.41
2023-01-29T11:43:16.546Z,81.96
2023-01-29T11:45:43.481Z,82.06
2023-01-29T11:48:43.823Z,81.85
2023-01-29T11:51:20.392Z,81.92
2023-01-29T11:53:52.406Z,82.51
2023-01-29T11:56:25.051Z,81.95
2023-01-29T11:58:55.347Z,83.10
2023-01-29T12:01:36.422Z,82.71
2023-01-29T12:04:12.914Z,82.47
2023-01-29T12:06:44.114Z,83.07
2023-01-29T12:09:17.343Z,82.73
2023-01-29T12:11:44.237Z,83.59
2023-01-29T12:14:33.594Z,83.49
2023-01-29T12:17:08.294Z,83.82
2023-01-29T12:19:46.408Z,84.04
2023-01-29T12:22:38.705Z,83.43
2023-01-29T12:25:18.200Z,83.96
2023-01-29T12:28:19.816Z,83.94
2023-01-29T12:31:04.502Z,84.60
2023-01-29T12:33:41.702Z,83.74
2023-01-29T12:36:37.135Z,84.46
2023-01-29T12:39:03.913Z,83.73
2023-01-29T12:41:37.940Z,84.07
2023-01-29T12:44:17.076Z,83.98
2023-01-29T12:46:50.929Z,84.39
2023-01-29T12:49:24.974Z,83.92
2023-01-29T12:52:06.632Z,84.31
2023-01-29T12:54:55.065Z,83.78
2023-01-29T12:57:46.661Z,84.48
2023-01-29T13:00:29.839Z,84.27
2023-01-29T13:03:23.689Z,84.32
2023-01-29T13:06:12.137Z,84.02
2023-01-29T13:08:44.553Z,84.10
2023-01-29T13:11:19.725Z,84.05
2023-01-29T13:13:59.536Z,84.79
2023-01-29T13:16:30.639Z,84.32
2023-01-29T13:19:01.833Z,84.77
2023-01-29T13:21:38.143Z,84.80
2023-01-29T13:24:11.497Z,84.24
2023-01-29T13:26:39.544Z,84.62
2023-01-29T13:29:06.087Z,84.67
2023-01-29T13:31:36.536Z,84.11
2023-01-29T13:34:14.769Z,84.59
2023-01-29T13:36:46.922Z,84.09
2023-01-29T13:39:24.844Z,84.27
2023-01-29T13:41:53.087Z,84.54
2023-01-29T13:44:33.603Z,84.63
2023-01-29T13:47:05.151Z,83.88
2023-01-29T13:49:34.717Z,83.98
2023-01-29T13:52:17.206Z,83.94
2023-01-29T13:54:54.280Z,83.75
2023-01-29T13:57:48.892Z,83.71
2023-01-29T14:00:21.393Z,83.42
2023-01-29T14:03:00.115Z,83.60
2023-01-29T14:05:29.366Z,83.78
2023-01-29T14:07:55.751Z,84.37
2023-01-29T14:10:24.127Z,83.93
2023-01-29T14:12:52.848Z,84.26
2023-01-29T14:15:26.014Z,84.02
2023-01-29T14:18:13.634Z,84.46
2023-01-29T14:21:20.546Z,84.74
2023-01-29T14:23:52.658Z,84.33
2023-01-29T14:26:32.262Z,84.30
2023-01-29T14:29:25.561Z,84.72
2023-01-29T14:32:00.278Z,84.53
2023-01-29T14:34:45.886Z,84.43
2023-01-29T14:37:15.360Z,85.14
2023-01-29T14:39:54.822Z,85.25
2023-01-29T14:42:32.137Z,84.59
2023-01-29T14:45:06.646Z,84.51
2023-01-29T14:47:32.997Z,84.85
2023-01-29T14:50:02.232Z,84.91
2023-01-29T14:52:37.300Z,85.07
2023-01-29T14:55:11.046Z,85.00
2023-01-29T14:57:38.844Z,84.69
2023-01-29T15:00:07.607Z,84.26
2023-01-29T15:02:45.668Z,84.60
2023-01-29T15:05:19.154Z,85.15
2023-01-29T15:08:16.644Z,84.83
2023-01-29T15:10:48.682Z,85.31
2023-01-29T15:13:42.778Z,84.67
2023-01-29T15:16:17.244Z,84.93
2023-01-29T15:18:44.403Z,84.69
2023-01-29T15:21:13.194Z,85.19
2023-01-29T15:23:44.250Z,85.05
2023-01-29T15:26:20.116Z,85.06
2023-01-29T15:29:02.138Z,84.89
2023-01-29T15:31:30.516Z,84.76
2023-01-29T15:33:57.250Z,84.71
2023-01-29T15:36:26.748Z,85.33
2023-01-29T15:39:11.733Z,85.34
2023-01-29T15:41:38.669Z,85.28
2023-01-29T15:44:14.573Z,85.30
2023-01-29T15:46:43.140Z,85.64
2023-01-29T15:49:25.707Z,85.30
2023-01-29T15:51:57.051Z,85.59
2023-01-29T15:54:25.109Z,85.37
2023-01-29T15:56:52.948Z,85.56
2023-01-29T15:59:25.975Z,85.49
2023-01-29T16:01:53.940Z,85.94
2023-01-29T16:04:28.846Z,86.25
2023-01-29T16:06:57.120Z,86.39
2023-01-29T16:09:26.256Z,86.53
2023-01-29T16:11:57.376Z,85.86
2023-01-29T16:14:25.715Z,86.51
2023-01-29T16:16:52.939Z,86.84
2023-01-29T16:19:28.384Z,87.77
2023-01-29T16:21:57.625Z,88.25
2023-01-29T16:24:25.427Z,88.78
2023-01-29T16:26:58.484Z,89.07
2023-01-29T16:29:31.548Z,89.68
2023-01-29T16:32:03.192Z,88.95
2023-01-29T16:34:41.560Z,88.86
2023-01-29T16:37:23.227Z,89.00
2023-01-29T16:39:52.665Z,89.89
2023-01-29T16:42:20.689Z,89.54
2023-01-29T16:44:52.825Z,89.92
2023-01-29T16:47:39.444Z,90.59
2023-01-29T16:50:24.012Z,90.89
2023-01-29T16:53:00.911Z,90.86
2023-01-29T16:55:36.268Z,91.43
2023-01-29T16:58:15.114Z,91.25
2023-01-29T17:01:09.653Z,91.83
2023-01-29T17:03:37.517Z,91.12
2023-01-29T17:06:21.302Z,92.06
2023-01-29T17:08:48.194Z,92.26
2023-01-29T17:11:27.037Z,92.02
2023-01-29T17:13:55.813Z,92.65
2023-01-29T17:16:32.727Z,91.96
2023-01-29T17:19:00.502Z,92.70
2023-01-29T17:21:28.967Z,92.48
2023-01-29T17:23:55.624Z,92.03
2023-01-29T17:26:23.234Z,92.11
2023-01-29T17:28:51.544Z,92.34
2023-01-29T17:31:18.265Z,92.40
2023-01-29T17:33:45.971Z,91.97
2023-01-29T17:36:15.234Z,91.12
2023-01-29T17:38:42.046Z,91.05
2023-01-29T17:41:30.318Z,90.84
2023-01-29T17:43:56.743Z,90.72
2023-01-29T17:46:23.185Z,91.22
2023-01-29T17:48:50.095Z,90.82
2023-01-29T17:51:17.946Z,90.61
2023-01-29T17:53:46.473Z,90.52
2023-01-29T17:56:18.988Z,90.57
2023-01-29T17:58:45.525Z,90.78
2023-01-29T18:01:12.130Z,90.60
2023-01-29T18:03:38.676Z,90.32
2023-01-29T18:06:08.311Z,89.91
2023-01-29T18:08:37.598Z,89.98
2023-01-29T18:11:04.409Z,90.02
2023-01-29T18:13:30.897Z,89.92
2023-01-29T18:15:57.424Z,89.70
2023-01-29T18:18:24.341Z,89.88
2023-01-29T18:20:51.204Z,90.13
2023-01-29T18:23:17.776Z,89.83
2023-01-29T18:25:44.968Z,90.33
2023-01-29T18:28:20.488Z,90.31
2023-01-29T18:30:47.680Z,90.40
2023-01-29T18:33:15.468Z,89.66
2023-01-29T18:35:48.207Z,90.12
2023-01-29T18:38:14.865Z,90.00
2023-01-29T18:40:41.411Z,90.50
2023-01-29T18:43:08.002Z,90.29
2023-01-29T18:45:34.447Z,90.41
2023-01-29T18:48:01.578Z,90.38
2023-01-29T18:50:28.086Z,90.96
2023-01-29T18:52:54.699Z,90.71
2023-01-29T18:55:22.442Z,90.98
2023-01-29T18:58:24.929Z,90.36
2023-01-29T19:00:42.051Z,90.76
2023-01-29T19:03:08.557Z,90.54
2023-01-29T19:05:35.114Z,90.80
2023-01-29T19:08:01.987Z,90.57
2023-01-29T19:10:28.700Z,90.79
2023-01-29T19:12:55.187Z,90.65
2023-01-29T19:15:22.796Z,91.26
2023-01-29T19:17:53.009Z,90.32
2023-01-29T19:20:19.993Z,90.84
2023-01-29T19:22:46.680Z,90.95
2023-01-29T19:25:13.265Z,91.27
2023-01-29T19:27:39.776Z,90.91
2023-01-29T19:30:07.533Z,90.93
2023-01-29T19:32:34.710Z,90.73
2023-01-29T19:35:01.144Z,91.35
2023-01-29T19:37:28.036Z,90.97
2023-01-29T19:39:58.809Z,90.98
2023-01-29T19:42:25.603Z,91.46
2023-01-29T19:44:53.341Z,91.40
2023-01-29T19:47:20.155Z,91.03
2023-01-29T19:49:46.750Z,91.67
2023-01-29T19:52:41.470Z,91.40
2023-01-29T19:55:16.801Z,92.01
2023-01-29T19:57:43.528Z,92.10
2023-01-29T20:00:12.069Z,92.16
2023-01-29T20:02:38.680Z,91.58
2023-01-29T20:05:05.783Z,91.79
2023-01-29T20:07:32.253Z,92.09
2023-01-29T20:09:58.743Z,91.90
2023-01-29T20:12:27.512Z,92.44
2023-01-29T20:14:53.917Z,92.08
2023-01-29T20:17:20.360Z,92.29
2023-01-29T20:19:46.868Z,92.06
2023-01-29T20:22:13.646Z,92.32
2023-01-29T20:24:42.406Z,92.45
2023-01-29T20:27:10.741Z,92.90
2023-01-29T20:29:40.328Z,92.29
2023-01-29T20:32:08.827Z,92.68
2023-01-29T20:34:36.099Z,93.03
2023-01-29T20:37:02.642Z,92.67
2023-01-29T20:39:29.147Z,92.96
2023-01-29T20:41:57.276Z,93.04
2023-01-29T20:44:26.703Z,93.59
2023-01-29T20:46:53.265Z,93.31
2023-01-29T20:49:19.992Z,93.47
2023-01-29T20:51:46.519Z,93.77
2023-01-29T20:54:13.251Z,93.69
2023-01-29T20:56:42.961Z,93.61
2023-01-29T20:59:11.423Z,94.08
2023-01-29T21:01:38.133Z,93.85
2023-01-29T21:04:04.614Z,94.29
2023-01-29T21:06:31.434Z,94.82
2023-01-29T21:08:57.962Z,94.74
2023-01-29T21:11:24.550Z,94.57
2023-01-29T21:13:54.362Z,95.45
2023-01-29T21:16:20.859Z,95.54
2023-01-29T21:18:47.348Z,94.96
2023-01-29T21:21:13.825Z,96.14
2023-01-29T21:23:40.282Z,95.98
2023-01-29T21:26:07.197Z,95.97
2023-01-29T21:28:34.129Z,96.15
2023-01-29T21:31:10.065Z,95.94
2023-01-29T21:33:37.112Z,96.72
2023-01-29T21:36:04.629Z,96.17
2023-01-29T21:38:31.466Z,97.05
2023-01-29T21:41:03.101Z,97.26
2023-01-29T21:43:29.537Z,97.24
2023-01-29T21:45:57.266Z,97.65
2023-01-29T21:48:24.335Z,98.16
2023-01-29T21:50:51.352Z,97.80
2023-01-29T21:53:18.624Z,98.00
2023-01-29T21:55:46.218Z,97.69
2023-01-29T21:58:14.421Z,97.97
2023-01-29T22:00:41.134Z,98.61
2023-01-29T22:03:07.692Z,98.41
2023-01-29T22:05:34.259Z,98.91
2023-01-29T22:08:00.891Z,98.92
2023-01-29T22:10:28.780Z,98.63
2023-01-29T22:12:55.458Z,99.12
2023-01-29T22:15:24.055Z,98.73
2023-01-29T22:17:50.878Z,98.96
2023-01-29T22:20:17.855Z,98.55
2023-01-29T22:22:44.589Z,99.60
2023-01-29T22:25:11.736Z,99.60
2023-01-29T22:27:38.220Z,99.86
2023-01-29T22:30:05.634Z,99.38
2023-01-29T22:32:32.820Z,99.92
2023-01-29T22:34:59.328Z,99.44
2023-01-29T22:37:25.798Z,99.95
2023-01-29T22:39:52.239Z,100.00
2023-01-29T22:42:20.465Z,100.00
2023-01-29T22:44:48.060Z,99.99
2023-01-29T22:47:14.455Z,100.00
2023-01-29T22:49:40.938Z,100.00
2023-01-29T22:52:10.296Z,100.00
2023-01-29T22:54:38.758Z,100.00
2023-01-29T22:57:05.765Z,100.00
2023-01-29T22:59:32.871Z,100.00
2023-01-29T23:01:59.471Z,100.00
2023-01-29T23:04:26.128Z,100.00
2023-01-29T23:06:52.612Z,100.00
2023-01-29T23:09:19.113Z,100.00
2023-01-29T23:11:45.691Z,100.00
2023-01-29T23:14:12.145Z,100.00
2023-01-29T23:16:38.553Z,100.00
2023-01-29T23:19:05.258Z,100.00
2023-01-29T23:21:31.690Z,100.00
2023-01-29T23:24:01.431Z,100.00
2023-01-29T23:26:54.874Z,100.00
2023-01-29T23:29:21.332Z,100.00
2023-01-29T23:31:48.032Z,100.00
2023-01-29T23:34:15.176Z,100.00
2023-01-29T23:36:41.817Z,100.00
2023-01-29T23:39:08.614Z,100.00
2023-01-29T23:41:35.385Z,100.00
2023-01-29T23:44:01.897Z,100.00
2023-01-29T23:46:28.361Z,100.00
2023-01-29T23:48:54.793Z,100.00
2023-01-29T23:51:21.198Z,100.00
2023-01-29T23:53:47.703Z,100.00
2023-01-29T23:56:14.164Z,100.00
2023-01-29T23:58:40.638Z,100.00
